Terminal Aerodrome Forecast
Issued by NWS Pocatello, ID

Home | Current Version | Previous Version | Text Only | Print | Product List | Glossary On
Versions: 1 2 3 4 5 6 7 8 9 10 11 12 13 14 15
000
FTUS45 KPIH 271415 AAB
TAFBYI
TAF AMD
KBYI 271415Z 2714/2812 04005KT 2SM BR VV002
     FM271500 24007KT P6SM VCSH SCT008 BKN025
      TEMPO 2715/2718 2SM -SN BKN008
     FM271800 26016G26KT P6SM VCSH SCT025 BKN070
     FM280200 23008KT P6SM SCT050=

USA.gov is the U.S. government's official web portal to all federal, state and local government web resources and services.